Time;durP1;ratioP1;P1;durP2;ratioP2;P2;SDS_P1;SDS_P2;PMS_P1;PMS_P2;Temp;Humidity;BMP_temperature;BMP_pressure;BME280_temperature;BME280_humidity;BME280_pressure;Samples;Min_cycle;Max_cycle;Signal;HPM_P1;HPM_P2
2021/03/07 00:00:01;;;;;;;11.68;6.68;;;0.70;1561.60;;;;;;4973196;28;20121;-73
2021/03/07 00:02:26;;;;;;;13.20;7.25;;;0.60;1612.80;;;;;;4984055;28;20492;-66
2021/03/07 00:04:52;;;;;;;11.55;6.72;;;0.60;1689.60;;;;;;4979437;28;20040;-73
2021/03/07 00:07:18;;;;;;;15.35;7.15;;;0.60;1664.00;;;;;;4965709;28;20102;-70
2021/03/07 00:09:44;;;;;;;10.07;6.70;;;0.60;1715.20;;;;;;4969409;28;20022;-68
2021/03/07 00:12:10;;;;;;;9.57;5.88;;;0.60;1689.60;;;;;;4974491;28;20038;-70
2021/03/07 00:14:35;;;;;;;12.38;6.55;;;0.50;1664.00;;;;;;4961974;28;20028;-68
2021/03/07 00:17:01;;;;;;;10.65;6.30;;;0.50;1664.00;;;;;;4962930;28;20049;-74
2021/03/07 00:19:27;;;;;;;9.88;6.30;;;0.50;1638.40;;;;;;4968175;28;20026;-67
2021/03/07 00:21:53;;;;;;;9.88;5.70;;;0.40;1689.60;;;;;;4977608;28;20030;-72
2021/03/07 00:24:18;;;;;;;11.23;5.80;;;0.40;1638.40;;;;;;4965228;28;20383;-68
2021/03/07 00:26:44;;;;;;;9.38;5.30;;;0.40;1638.40;;;;;;4963461;28;20027;-69
2021/03/07 00:29:10;;;;;;;14.20;6.72;;;0.40;1612.80;;;;;;4971779;28;20030;-72
2021/03/07 00:31:36;;;;;;;13.70;6.00;;;0.30;1638.40;;;;;;4959709;28;20433;-72
2021/03/07 00:34:02;;;;;;;11.55;6.70;;;0.30;1664.00;;;;;;4972602;28;20042;-69
2021/03/07 00:36:28;;;;;;;11.55;6.15;;;0.20;1664.00;;;;;;4968969;28;20114;-67
2021/03/07 00:38:53;;;;;;;13.48;7.25;;;0.10;1664.00;;;;;;4970836;28;20107;-70
2021/03/07 00:41:19;;;;;;;10.10;6.10;;;0.10;1664.00;;;;;;4961456;28;20089;-73
2021/03/07 00:43:45;;;;;;;12.52;6.53;;;0.00;1638.40;;;;;;4978853;28;20439;-72
2021/03/07 00:46:11;;;;;;;8.82;6.25;;;0.00;1664.00;;;;;;4963853;28;20038;-68
2021/03/07 00:48:37;;;;;;;12.68;6.57;;;0.00;1689.60;;;;;;4965881;28;20023;-66
2021/03/07 00:51:03;;;;;;;11.57;6.20;;;0.00;1715.20;;;;;;4973394;28;20377;-73
2021/03/07 00:53:28;;;;;;;12.68;7.03;;;0.00;1715.20;;;;;;4972918;28;20066;-72
2021/03/07 00:55:54;;;;;;;13.40;7.25;;;0.00;1817.60;;;;;;4974399;28;20485;-68
2021/03/07 00:58:20;;;;;;;10.30;6.25;;;0.00;1817.60;;;;;;4974529;28;20030;-69
2021/03/07 01:00:47;;;;;;;12.52;6.93;;;0.10;2099.20;;;;;;4945175;28;20031;-69
2021/03/07 01:03:14;;;;;;;10.73;6.00;;;0.00;1715.20;;;;;;4961191;28;20050;-69
2021/03/07 01:05:40;;;;;;;9.05;5.72;;;0.00;1715.20;;;;;;4964780;28;20086;-73
2021/03/07 01:08:06;;;;;;;12.23;6.93;;;0.00;1715.20;;;;;;4963535;28;20155;-71
2021/03/07 01:10:31;;;;;;;9.75;6.10;;;0.00;1689.60;;;;;;4968213;28;20560;-72
2021/03/07 01:12:57;;;;;;;15.57;6.93;;;0.00;1715.20;;;;;;4972878;28;20055;-73
2021/03/07 01:15:28;;;;;;;12.43;6.60;;;0.00;1689.60;;;;;;4968164;28;20070;-71
2021/03/07 01:17:55;;;;;;;12.45;7.13;;;0.00;1689.60;;;;;;4970284;28;20514;-72
2021/03/07 01:20:22;;;;;;;14.18;7.30;;;0.00;1689.60;;;;;;4967463;28;20038;-69
2021/03/07 01:22:48;;;;;;;10.48;6.10;;;0.00;1715.20;;;;;;4970916;28;20027;-72
2021/03/07 01:25:14;;;;;;;11.65;6.60;;;0.00;1715.20;;;;;;4966717;28;20560;-73
2021/03/07 01:27:39;;;;;;;12.98;7.00;;;0.00;1715.20;;;;;;4957699;28;20110;-68
2021/03/07 01:30:08;;;;;;;10.75;7.20;;;0.00;1689.60;;;;;;4965926;28;20484;-69
2021/03/07 01:32:34;;;;;;;18.05;8.90;;;0.10;1715.20;;;;;;4968291;28;20424;-69
2021/03/07 01:34:59;;;;;;;17.88;8.85;;;0.10;1664.00;;;;;;4971826;28;20031;-78
2021/03/07 01:37:25;;;;;;;22.17;10.00;;;0.20;1664.00;;;;;;4972552;28;20039;-71
2021/03/07 01:39:53;;;;;;;15.18;8.25;;;0.30;1689.60;;;;;;4963646;28;20535;-71
2021/03/07 01:42:19;;;;;;;12.63;7.43;;;0.30;1664.00;;;;;;4977215;28;20038;-73
2021/03/07 01:44:45;;;;;;;10.93;7.20;;;0.30;1664.00;;;;;;4963099;28;20045;-72
2021/03/07 01:47:11;;;;;;;13.77;7.10;;;0.40;1638.40;;;;;;4966080;28;20042;-71
2021/03/07 01:49:37;;;;;;;8.98;6.00;;;0.40;1664.00;;;;;;4963396;28;20031;-71
2021/03/07 01:52:03;;;;;;;10.75;6.28;;;0.50;1638.40;;;;;;4972430;28;20037;-69
2021/03/07 01:54:29;;;;;;;8.85;5.88;;;0.50;1612.80;;;;;;4973029;28;20129;-72
2021/03/07 01:56:56;;;;;;;9.95;5.82;;;0.50;1612.80;;;;;;4973637;28;20035;-73
2021/03/07 01:59:24;;;;;;;7.75;5.18;;;0.50;1612.80;;;;;;4958648;28;20078;-72
2021/03/07 02:01:51;;;;;;;8.88;5.20;;;0.60;1612.80;;;;;;4971337;28;20034;-69
2021/03/07 02:04:17;;;;;;;10.63;5.50;;;0.60;1612.80;;;;;;4968236;28;20030;-73
2021/03/07 02:06:43;;;;;;;12.50;6.65;;;0.60;1612.80;;;;;;4973563;28;20034;-71
2021/03/07 02:09:09;;;;;;;14.80;8.50;;;0.60;1612.80;;;;;;4972308;28;20031;-67
2021/03/07 02:11:37;;;;;;;9.52;6.22;;;0.60;1612.80;;;;;;4966260;28;20484;-68
2021/03/07 02:14:06;;;;;;;20.08;10.90;;;0.60;1612.80;;;;;;4983236;28;20043;-73
2021/03/07 02:16:33;;;;;;;12.50;7.47;;;0.60;1612.80;;;;;;4966933;28;20031;-72
2021/03/07 02:18:59;;;;;;;12.50;7.78;;;0.60;1612.80;;;;;;4974277;28;20402;-69
2021/03/07 02:21:36;;;;;;;11.25;7.25;;;0.60;1587.20;;;;;;4972894;28;20035;-68
2021/03/07 02:24:06;;;;;;;12.40;7.07;;;0.70;1612.80;;;;;;4981353;28;20026;-67
2021/03/07 02:26:38;;;;;;;12.85;8.32;;;0.70;1612.80;;;;;;4978532;28;20491;-67
2021/03/07 02:29:06;;;;;;;15.35;8.98;;;0.70;1587.20;;;;;;4961070;28;20092;-73
2021/03/07 02:31:35;;;;;;;12.48;7.43;;;0.70;1612.80;;;;;;4977042;28;20034;-71
2021/03/07 02:34:12;;;;;;;13.48;7.28;;;0.70;1587.20;;;;;;4977305;28;20022;-69
2021/03/07 02:36:43;;;;;;;12.25;7.82;;;0.70;1587.20;;;;;;4965593;28;20035;-73
2021/03/07 02:39:11;;;;;;;10.32;6.80;;;0.70;1587.20;;;;;;4974389;28;20105;-72
2021/03/07 02:41:37;;;;;;;15.70;7.47;;;0.70;1587.20;;;;;;4980930;28;20115;-73
2021/03/07 02:44:06;;;;;;;10.27;6.57;;;0.70;1587.20;;;;;;4969141;28;20484;-73
2021/03/07 02:46:33;;;;;;;10.18;6.15;;;0.70;1561.60;;;;;;4969722;28;20130;-71
2021/03/07 02:49:02;;;;;;;14.20;7.30;;;0.70;1587.20;;;;;;4964497;28;20029;-68
2021/03/07 02:51:31;;;;;;;16.20;7.95;;;0.70;1587.20;;;;;;4975925;28;20504;-73
2021/03/07 02:54:02;;;;;;;11.32;6.13;;;0.70;1587.20;;;;;;4974388;28;20058;-72
2021/03/07 02:56:30;;;;;;;12.82;7.55;;;0.70;1612.80;;;;;;4973590;28;20086;-73
2021/03/07 02:59:01;;;;;;;11.90;6.78;;;0.60;1612.80;;;;;;4975740;28;20074;-67
2021/03/07 03:01:28;;;;;;;11.23;6.50;;;0.60;1612.80;;;;;;4975823;28;20032;-71
2021/03/07 03:03:55;;;;;;;8.68;5.40;;;0.60;1612.80;;;;;;4961595;28;20053;-69
2021/03/07 03:06:22;;;;;;;8.75;5.65;;;0.50;1612.80;;;;;;4966435;28;20117;-70
2021/03/07 03:08:53;;;;;;;9.68;6.03;;;0.50;1612.80;;;;;;4968379;28;20027;-72
2021/03/07 03:11:23;;;;;;;11.23;6.40;;;0.50;1612.80;;;;;;4975579;28;20092;-72
2021/03/07 03:13:50;;;;;;;11.90;6.97;;;0.40;1638.40;;;;;;4970080;28;20030;-67
2021/03/07 03:16:17;;;;;;;12.52;8.15;;;0.40;1664.00;;;;;;4973365;28;20492;-71
2021/03/07 03:18:44;;;;;;;13.20;8.32;;;0.30;1689.60;;;;;;4978109;28;20063;-73
2021/03/07 03:21:12;;;;;;;15.38;8.57;;;0.30;1740.80;;;;;;4977784;28;20043;-72
2021/03/07 03:23:39;;;;;;;15.50;9.32;;;0.30;1766.40;;;;;;4969150;28;20106;-72
2021/03/07 03:26:05;;;;;;;12.30;7.88;;;0.20;1843.20;;;;;;4974892;28;20027;-76
2021/03/07 03:28:32;;;;;;;15.18;8.05;;;0.10;1868.80;;;;;;4981344;28;20058;-70
2021/03/07 03:30:58;;;;;;;13.98;8.70;;;0.00;1894.40;;;;;;4967803;28;20082;-73
2021/03/07 03:33:26;;;;;;;13.45;8.27;;;0.00;1945.60;;;;;;4974705;28;20058;-69
2021/03/07 03:35:53;;;;;;;13.27;8.35;;;0.00;1996.80;;;;;;4965595;28;20074;-71
2021/03/07 03:38:39;;;;;;;13.63;8.18;;;12.90;1971.20;;;;;;4969751;28;20023;-72
2021/03/07 03:41:09;;;;;;;13.65;7.65;;;12.90;1945.60;;;;;;4966616;28;20033;-73
2021/03/07 03:43:36;;;;;;;14.43;8.77;;;0.00;1920.00;;;;;;4967959;28;20054;-73
2021/03/07 03:46:04;;;;;;;13.55;7.97;;;0.00;1945.60;;;;;;4969374;28;20107;-73
2021/03/07 03:48:36;;;;;;;13.32;8.30;;;12.90;1920.00;;;;;;4961442;28;20059;-72
2021/03/07 03:51:03;;;;;;;13.50;8.48;;;12.90;1920.00;;;;;;4968464;28;20105;-73
2021/03/07 03:53:31;;;;;;;15.27;8.63;;;13.00;1971.20;;;;;;4968974;28;20066;-73
2021/03/07 03:55:59;;;;;;;14.10;8.50;;;13.10;1996.80;;;;;;4971544;28;20038;-73
2021/03/07 03:58:28;;;;;;;13.27;7.97;;;13.20;1971.20;;;;;;4971020;28;20033;-73
2021/03/07 04:00:55;;;;;;;13.43;8.18;;;13.20;2022.40;;;;;;4974259;28;20551;-69
2021/03/07 04:03:23;;;;;;;11.15;6.55;;;13.30;1996.80;;;;;;4966395;28;20066;-73
2021/03/07 04:05:50;;;;;;;10.00;6.15;;;13.40;1843.20;;;;;;4970430;28;20038;-73
2021/03/07 04:08:17;;;;;;;12.45;7.40;;;13.40;1843.20;;;;;;4982253;28;20105;-71
2021/03/07 04:10:45;;;;;;;8.60;5.88;;;13.40;1843.20;;;;;;4974499;28;20026;-72
2021/03/07 04:13:15;;;;;;;11.00;6.25;;;13.50;1817.60;;;;;;4974318;28;20030;-72
2021/03/07 04:15:42;;;;;;;10.32;6.55;;;13.50;1868.80;;;;;;4976304;28;20134;-72
2021/03/07 04:18:09;;;;;;;10.05;6.80;;;13.50;1843.20;;;;;;4970703;28;20019;-73
2021/03/07 04:20:35;;;;;;;9.23;6.28;;;13.60;1843.20;;;;;;4977103;28;20034;-74
2021/03/07 04:23:01;;;;;;;11.90;6.95;;;13.60;1817.60;;;;;;4962511;28;20046;-73
2021/03/07 04:25:26;;;;;;;10.23;6.22;;;13.60;1817.60;;;;;;4972838;28;20042;-72
2021/03/07 04:27:52;;;;;;;11.70;6.72;;;13.70;1792.00;;;;;;4976427;28;20065;-74
2021/03/07 04:30:20;;;;;;;11.95;6.88;;;13.70;1817.60;;;;;;4970010;28;20061;-69
2021/03/07 04:32:46;;;;;;;14.13;7.32;;;38.40;1868.80;;;;;;4965131;28;20077;-71
2021/03/07 04:35:13;;;;;;;19.38;8.57;;;38.40;1868.80;;;;;;4969502;28;20051;-72
2021/03/07 04:37:39;;;;;;;24.08;10.68;;;38.40;1894.40;;;;;;4965003;28;20059;-73
2021/03/07 04:40:06;;;;;;;27.23;12.27;;;38.40;1894.40;;;;;;4966564;28;20019;-68
2021/03/07 04:42:33;;;;;;;91.95;45.38;;;38.40;1894.40;;;;;;4967786;28;20578;-68
2021/03/07 04:44:59;;;;;;;54.00;27.40;;;13.60;2201.60;;;;;;4969251;28;20043;-71
2021/03/07 04:47:24;;;;;;;43.88;22.83;;;38.40;1894.40;;;;;;4967253;28;20066;-74
2021/03/07 04:49:50;;;;;;;34.63;17.48;;;;;;;;;;4970121;28;20030;-70
2021/03/07 04:52:16;;;;;;;26.90;14.38;;;13.60;1920.00;;;;;;4969623;28;20074;-67
2021/03/07 04:54:42;;;;;;;31.17;16.58;;;38.40;1971.20;;;;;;4969181;28;20042;-69
2021/03/07 04:57:07;;;;;;;20.83;12.10;;;38.40;1920.00;;;;;;4974383;28;20035;-72
2021/03/07 04:59:33;;;;;;;32.88;16.67;;;38.40;1894.40;;;;;;4975948;28;20026;-69
2021/03/07 05:01:59;;;;;;;120.35;55.53;;;38.40;1920.00;;;;;;4968950;28;20027;-69
2021/03/07 05:04:25;;;;;;;59.20;29.42;;;38.40;1894.40;;;;;;4964010;28;20474;-73
2021/03/07 05:06:51;;;;;;;96.53;51.60;;;38.40;1945.60;;;;;;4967981;28;20038;-72
2021/03/07 05:09:17;;;;;;;59.03;31.70;;;38.40;1894.40;;;;;;4967838;28;20035;-67
2021/03/07 05:11:43;;;;;;;46.88;25.48;;;38.40;1945.60;;;;;;4982046;28;20683;-70
2021/03/07 05:14:09;;;;;;;57.22;30.65;;;38.40;1868.80;;;;;;4971398;28;20027;-73
2021/03/07 05:16:35;;;;;;;35.30;18.92;;;38.40;1971.20;;;;;;4964238;28;20483;-70
2021/03/07 05:19:02;;;;;;;30.33;17.20;;;38.40;1894.40;;;;;;4976573;28;20026;-70
2021/03/07 05:21:27;;;;;;;24.83;14.63;;;13.70;1945.60;;;;;;4973507;28;20031;-74
2021/03/07 05:23:56;;;;;;;22.55;12.73;;;13.70;1945.60;;;;;;4964365;28;20511;-73
2021/03/07 05:26:22;;;;;;;20.65;11.18;;;13.60;1945.60;;;;;;4979191;28;20117;-73
2021/03/07 05:28:48;;;;;;;26.17;15.27;;;13.60;1894.40;;;;;;4974897;28;20086;-74
2021/03/07 05:31:14;;;;;;;26.00;15.65;;;13.50;1894.40;;;;;;4978775;28;20045;-68
2021/03/07 05:33:40;;;;;;;30.58;17.17;;;13.50;1894.40;;;;;;4978284;28;20404;-73
2021/03/07 05:36:06;;;;;;;32.00;19.83;;;13.40;1894.40;;;;;;4982909;28;20047;-73
2021/03/07 05:38:32;;;;;;;30.58;17.63;;;13.40;1868.80;;;;;;4975358;28;20482;-71
2021/03/07 05:40:58;;;;;;;25.83;17.13;;;13.30;1894.40;;;;;;4980505;28;20027;-72
2021/03/07 05:43:24;;;;;;;30.63;18.35;;;13.20;1843.20;;;;;;4973343;28;20039;-72
2021/03/07 05:45:50;;;;;;;24.00;16.77;;;13.10;1868.80;;;;;;4980876;28;20481;-67
2021/03/07 05:48:17;;;;;;;26.73;16.05;;;13.00;1868.80;;;;;;4977822;28;20085;-68
2021/03/07 05:50:43;;;;;;;25.45;16.23;;;12.90;1817.60;;;;;;4974064;28;20038;-70
2021/03/07 05:53:08;;;;;;;28.45;15.68;;;12.90;1817.60;;;;;;4974509;28;20027;-72
2021/03/07 05:55:35;;;;;;;17.10;11.70;;;0.00;1868.80;;;;;;4988131;28;20039;-68
2021/03/07 05:58:02;;;;;;;49.22;26.00;;;0.10;1868.80;;;;;;4981625;28;20039;-71
2021/03/07 06:00:29;;;;;;;48.10;25.02;;;0.20;1817.60;;;;;;4985581;28;20027;-81
2021/03/07 06:02:55;;;;;;;37.40;18.23;;;0.40;1766.40;;;;;;4988606;28;20061;-70
2021/03/07 06:05:21;;;;;;;21.38;11.73;;;0.50;1817.60;;;;;;4988022;28;20035;-69
2021/03/07 06:07:47;;;;;;;22.75;13.00;;;0.80;1740.80;;;;;;4986527;28;20134;-67
2021/03/07 06:10:15;;;;;;;24.90;15.48;;;25.80;1740.80;;;;;;4990070;28;20109;-71
2021/03/07 06:12:42;;;;;;;24.75;12.95;;;26.40;1689.60;;;;;;4986190;28;20031;-71
2021/03/07 06:15:09;;;;;;;27.13;12.65;;;;;;;;;;4980616;28;20101;-73
2021/03/07 06:17:35;;;;;;;;;;;;;;;;;;4976648;28;20030;-69
2021/03/07 06:20:03;;;;;;;;;;;;;;;;;;4980568;28;19910;-78
2021/03/07 06:22:31;;;;;;;20.30;11.45;;;;;;;;;;4975211;28;19918;-75
2021/03/07 06:24:57;;;;;;;22.83;12.38;;;180.00;1254.40;;;;;;4979804;28;20062;-86
2021/03/07 06:27:24;;;;;;;18.58;12.18;;;205.60;1126.40;;;;;;4972643;28;20026;-84
2021/03/07 06:30:09;;;;;;;19.33;12.07;;;256.40;1075.20;;;;;;4974228;28;20035;-76
2021/03/07 06:32:36;;;;;;;19.15;12.32;;;;;;;;;;4973827;28;20026;-83
2021/03/07 06:35:08;;;;;;;17.92;12.32;;;333.00;998.40;;;;;;4979155;28;20058;-67
2021/03/07 06:37:50;;;;;;;15.93;11.77;;;;;;;;;;4971992;28;20077;-82
2021/03/07 06:40:36;;;;;;;20.27;12.05;;;;;;;;;;4980126;28;20023;-78
2021/03/07 06:43:04;;;;;;;17.80;10.18;;;;;;;;;;4977709;28;20019;-79
2021/03/07 06:45:43;;;;;;;13.45;8.98;;;;;;;;;;4978496;28;21561;-76
2021/03/07 06:48:10;;;;;;;12.93;8.77;;;;;;;;;;4963169;28;20027;-70
2021/03/07 06:50:36;;;;;;;35.67;24.55;;;;;;;;;;4962541;28;20042;-75
2021/03/07 06:53:02;;;;;;;20.75;10.77;;;;;;;;;;4978846;28;20041;-80
2021/03/07 06:55:30;;;;;;;11.75;7.70;;;;;;;;;;4970962;28;20102;-66
2021/03/07 06:57:56;;;;;;;12.40;7.82;;;;;;;;;;4977567;28;20026;-71
2021/03/07 07:00:38;;;;;;;7.90;5.63;;;;;;;;;;4969613;28;20094;-67
2021/03/07 07:03:06;;;;;;;6.80;5.10;;;;;;;;;;4964231;28;20024;-65
2021/03/07 07:05:42;;;;;;;9.18;4.90;;;;;;;;;;4965232;28;20043;-73
2021/03/07 07:08:09;;;;;;;6.13;4.70;;;;;;;;;;4980833;28;20467;-73
2021/03/07 07:11:07;;;;;;;6.00;4.43;;;;;;;;;;4978712;28;20139;-78
2021/03/07 07:13:42;;;;;;;8.23;4.88;;;;;;;;;;4929598;29;20048;-80
2021/03/07 07:16:09;;;;;;;8.68;5.82;;;;;;;;;;4934098;28;20043;-71
2021/03/07 07:18:36;;;;;;;8.93;5.40;;;;;;;;;;4924235;29;20497;-73
2021/03/07 07:21:04;;;;;;;8.57;4.65;;;;;;;;;;4927686;29;20032;-68
2021/03/07 07:23:30;;;;;;;5.75;4.47;;;;;;;;;;4933026;29;20040;-70
2021/03/07 07:25:56;;;;;;;10.00;6.53;;;;;;;;;;4941102;29;20254;-65
2021/03/07 07:28:23;;;;;;;6.40;4.38;;;;;;;;;;4940629;29;20466;-74
2021/03/07 07:31:02;;;;;;;13.32;8.70;;;;;;;;;;4917017;29;20048;-68
2021/03/07 07:33:35;;;;;;;11.85;8.43;;;;;;;;;;4933058;29;20058;-70
2021/03/07 07:36:02;;;;;;;14.35;9.68;;;;;;;;;;4927548;29;20134;-64
2021/03/07 07:38:30;;;;;;;10.27;6.15;;;;;;;;;;4929716;29;20032;-68
2021/03/07 07:40:56;;;;;;;11.20;6.90;;;;;;;;;;4926396;29;20434;-67
2021/03/07 07:43:22;;;;;;;10.85;7.20;;;;;;;;;;4934117;29;20044;-69
2021/03/07 07:45:48;;;;;;;10.30;6.50;;;;;;;;;;4936046;29;20027;-66
2021/03/07 07:48:32;;;;;;;21.65;19.33;;;;;;;;;;4939645;28;20087;-69
2021/03/07 07:50:58;;;;;;;10.00;7.30;;;;;;;;;;4975392;28;20030;-68
2021/03/07 07:53:24;;;;;;;10.13;6.82;;;;;;;;;;4967370;28;20142;-69
2021/03/07 07:55:52;;;;;;;12.77;6.00;;;;;;;;;;4963088;28;20035;-65
2021/03/07 07:58:36;;;;;;;346.15;216.40;;;;;;;;;;4962535;28;20481;-64
2021/03/07 08:01:04;;;;;;;22.02;14.75;;;435.80;512.00;;;;;;4969228;28;20381;-74
2021/03/07 08:03:39;;;;;;;50.65;35.67;;;435.90;512.00;;;;;;4970183;28;20030;-71
2021/03/07 08:06:10;;;;;;;13.00;8.98;;;435.70;537.60;;;;;;4965289;28;20039;-69
2021/03/07 08:08:40;;;;;;;13.23;10.80;;;410.50;537.60;;;;;;4955265;28;20094;-69
2021/03/07 08:11:07;;;;;;;6.70;4.75;;;435.80;563.20;;;;;;4970107;28;20472;-79
2021/03/07 08:13:35;;;;;;;6.53;4.70;;;435.90;563.20;;;;;;4965460;28;20457;-76
2021/03/07 08:16:04;;;;;;;9.98;4.70;;;435.90;537.60;;;;;;4966252;28;20572;-69
2021/03/07 08:18:57;;;;;;;8.63;5.45;;;436.10;537.60;;;;;;4965367;28;20121;-70
2021/03/07 08:21:24;;;;;;;8.18;5.95;;;436.10;537.60;;;;;;4972109;28;20038;-70
2021/03/07 08:23:56;;;;;;;35.78;15.43;;;435.90;563.20;;;;;;4980329;28;20472;-68
2021/03/07 08:26:24;;;;;;;8.87;5.83;;;435.70;588.80;;;;;;4973521;28;20037;-67
2021/03/07 08:28:50;;;;;;;9.90;4.72;;;435.60;537.60;;;;;;4973550;28;20448;-69
2021/03/07 08:31:15;;;;;;;17.30;11.75;;;410.20;563.20;;;;;;4975220;28;20039;-66
2021/03/07 08:33:42;;;;;;;7.25;5.22;;;;;;;;;;4971130;28;20404;-68
2021/03/07 08:36:22;;;;;;;7.47;4.97;;;358.90;588.80;;;;;;4975112;28;20043;-65
2021/03/07 08:38:53;;;;;;;12.25;10.95;;;358.70;640.00;;;;;;4968150;28;20385;-68
2021/03/07 08:41:21;;;;;;;8.55;5.00;;;359.10;588.80;;;;;;4977125;28;20031;-66
2021/03/07 08:43:49;;;;;;;18.27;16.40;;;384.10;588.80;;;;;;4974318;28;20027;-70
2021/03/07 08:46:20;;;;;;;13.20;8.00;;;359.10;614.40;;;;;;4975189;28;20031;-70
2021/03/07 08:48:53;;;;;;;6.20;4.78;;;359.10;614.40;;;;;;4983091;28;20026;-67
2021/03/07 08:51:28;;;;;;;9.57;7.85;;;359.10;614.40;;;;;;4967724;28;20019;-67
2021/03/07 08:54:00;;;;;;;7.32;4.63;;;;;;;;;;4970688;28;20051;-66
2021/03/07 08:56:26;;;;;;;7.57;4.95;;;333.70;614.40;;;;;;4973216;28;20045;-68
2021/03/07 08:58:52;;;;;;;6.40;5.00;;;332.90;665.60;;;;;;4970240;28;20035;-71
2021/03/07 09:01:18;;;;;;;8.05;5.40;;;307.40;665.60;;;;;;4976072;28;20428;-73
2021/03/07 09:03:55;;;;;;;21.63;19.42;;;282.10;665.60;;;;;;4967502;28;20027;-70
2021/03/07 09:06:21;;;;;;;9.88;5.50;;;256.70;716.80;;;;;;4973688;28;20492;-68
2021/03/07 09:08:46;;;;;;;7.80;5.60;;;231.00;742.40;;;;;;4976888;28;20083;-71
2021/03/07 09:11:12;;;;;;;6.95;5.30;;;230.50;768.00;;;;;;4974827;28;20042;-72
2021/03/07 09:13:48;;;;;;;12.00;8.93;;;;;;;;;;4978821;28;20023;-72
2021/03/07 09:16:15;;;;;;;8.40;5.20;;;;;;;;;;4983133;28;20031;-72
2021/03/07 09:18:40;;;;;;;8.10;5.50;;;205.00;819.20;;;;;;4969963;28;20515;-72
2021/03/07 09:21:11;;;;;;;6.97;5.30;;;179.90;844.80;;;;;;4974470;28;20039;-69
2021/03/07 09:23:37;;;;;;;10.63;5.10;;;;;;;;;;4976257;28;20022;-71
2021/03/07 09:26:08;;;;;;;8.65;5.53;;;179.30;921.60;;;;;;4978907;28;20113;-69
2021/03/07 09:28:36;;;;;;;9.00;5.90;;;154.40;921.60;;;;;;4973578;28;20031;-71
2021/03/07 09:31:08;;;;;;;8.35;5.90;;;179.30;947.20;;;;;;4969881;28;20081;-73
2021/03/07 09:33:35;;;;;;;7.38;5.53;;;154.30;921.60;;;;;;4958325;28;20549;-70
2021/03/07 09:36:11;;;;;;;7.60;5.32;;;154.20;947.20;;;;;;4963432;28;20047;-72
2021/03/07 09:38:43;;;;;;;8.38;5.75;;;154.10;972.80;;;;;;4970186;28;20109;-69
2021/03/07 09:41:10;;;;;;;10.25;7.10;;;153.80;972.80;;;;;;4979427;28;20057;-72
2021/03/07 09:43:36;;;;;;;10.20;6.55;;;153.70;998.40;;;;;;4975798;28;20026;-70
2021/03/07 09:46:03;;;;;;;10.35;6.55;;;;;;;;;;4966694;28;20030;-67
2021/03/07 09:48:31;;;;;;;8.40;5.95;;;;;;;;;;4969116;28;20039;-71
2021/03/07 09:50:58;;;;;;;10.15;6.72;;;;;;;;;;4971418;28;20041;-71
2021/03/07 09:53:25;;;;;;;8.45;6.03;;;;;;;;;;4969971;28;20043;-71
2021/03/07 09:55:51;;;;;;;9.88;6.00;;;;;;;;;;4963070;28;20485;-72
2021/03/07 09:58:17;;;;;;;8.13;6.10;;;153.80;998.40;;;;;;4970619;28;20038;-67
2021/03/07 10:00:51;;;;;;;12.27;6.93;;;153.70;1126.40;;;;;;4964283;28;20022;-75
2021/03/07 10:03:25;;;;;;;10.75;6.70;;;153.70;998.40;;;;;;4972626;28;20043;-70
2021/03/07 10:06:07;;;;;;;8.73;6.40;;;153.70;998.40;;;;;;4971303;28;20399;-73
2021/03/07 10:08:34;;;;;;;9.88;6.90;;;153.70;998.40;;;;;;4965687;28;20030;-78
2021/03/07 10:11:22;;;;;;;17.38;13.13;;;153.80;998.40;;;;;;4973071;28;20031;-87
2021/03/07 10:14:01;;;;;;;9.27;6.82;;;154.00;1049.60;;;;;;4974472;28;20031;-77
2021/03/07 10:16:30;;;;;;;13.40;7.93;;;154.20;972.80;;;;;;4975331;28;20366;-89
2021/03/07 10:19:22;;;;;;;13.13;7.13;;;154.40;998.40;;;;;;4973714;28;20155;-76
2021/03/07 10:21:55;;;;;;;15.25;8.02;;;154.40;998.40;;;;;;4974419;28;20413;-76
2021/03/07 10:24:21;;;;;;;15.13;7.70;;;154.40;998.40;;;;;;4976700;28;20035;-87
2021/03/07 10:26:51;;;;;;;11.25;6.93;;;154.30;998.40;;;;;;4969465;28;20094;-70
2021/03/07 10:29:27;;;;;;;9.55;6.07;;;154.20;972.80;;;;;;4971153;28;20027;-74
2021/03/07 10:32:09;;;;;;;10.57;6.53;;;154.20;972.80;;;;;;4974604;28;20061;-71
2021/03/07 10:34:42;;;;;;;11.27;6.53;;;154.20;972.80;;;;;;4972518;28;20023;-70
2021/03/07 10:37:09;;;;;;;10.63;7.13;;;154.20;972.80;;;;;;4968111;28;20035;-67
2021/03/07 10:39:36;;;;;;;13.65;7.05;;;154.40;972.80;;;;;;4967069;28;20269;-68
2021/03/07 10:42:05;;;;;;;12.20;6.78;;;179.20;998.40;;;;;;4969891;28;20058;-72
2021/03/07 10:44:31;;;;;;;14.45;9.18;;;154.40;972.80;;;;;;4972634;28;20022;-71
2021/03/07 10:47:11;;;;;;;21.92;12.95;;;154.50;998.40;;;;;;4967818;28;20027;-71
2021/03/07 10:49:37;;;;;;;12.77;7.18;;;179.20;998.40;;;;;;4973897;28;20033;-86
2021/03/07 10:52:03;;;;;;;10.00;7.13;;;154.50;947.20;;;;;;4964879;28;20078;-84
2021/03/07 10:54:29;;;;;;;11.60;7.45;;;154.30;921.60;;;;;;4979543;28;20408;-80
2021/03/07 10:56:54;;;;;;;12.90;7.70;;;154.30;947.20;;;;;;4977580;28;20034;-73
2021/03/07 10:59:20;;;;;;;12.55;7.40;;;154.40;947.20;;;;;;4981465;28;20029;-80
2021/03/07 11:01:46;;;;;;;13.15;7.63;;;154.50;972.80;;;;;;4957151;28;20081;-87
2021/03/07 11:04:12;;;;;;;11.80;8.18;;;154.50;972.80;;;;;;4972804;28;20034;-74
2021/03/07 11:06:37;;;;;;;12.82;7.85;;;179.20;972.80;;;;;;4967647;28;20046;-75
2021/03/07 11:09:03;;;;;;;22.30;11.10;;;154.40;947.20;;;;;;4974211;28;20031;-79
2021/03/07 11:11:43;;;;;;;21.42;8.65;;;179.20;998.40;;;;;;4976353;28;20037;-75
2021/03/07 11:14:09;;;;;;;12.60;7.30;;;179.20;972.80;;;;;;4980570;28;20026;-78
2021/03/07 11:16:35;;;;;;;12.02;8.07;;;154.20;947.20;;;;;;4969832;28;20130;-79
2021/03/07 11:19:00;;;;;;;15.57;9.32;;;154.10;972.80;;;;;;4973099;28;20050;-77
2021/03/07 11:21:26;;;;;;;13.48;7.95;;;154.20;972.80;;;;;;4973093;28;20478;-78
2021/03/07 11:23:52;;;;;;;19.33;10.80;;;154.40;972.80;;;;;;4970185;28;20027;-71
2021/03/07 11:26:17;;;;;;;14.07;8.38;;;154.50;947.20;;;;;;4967869;28;20031;-75
2021/03/07 11:28:43;;;;;;;14.20;8.95;;;154.40;972.80;;;;;;4967398;28;20027;-75
2021/03/07 11:31:09;;;;;;;12.02;7.88;;;154.40;972.80;;;;;;4974970;28;20053;-75
2021/03/07 11:33:35;;;;;;;11.90;8.10;;;154.30;972.80;;;;;;4966935;28;20094;-78
2021/03/07 11:36:00;;;;;;;20.55;10.18;;;154.30;972.80;;;;;;4973671;28;20053;-72
2021/03/07 11:38:26;;;;;;;13.30;8.73;;;154.40;972.80;;;;;;4964423;28;20478;-78
2021/03/07 11:40:52;;;;;;;14.18;8.43;;;154.40;972.80;;;;;;4959160;28;20110;-79
2021/03/07 11:43:18;;;;;;;12.00;7.78;;;154.20;972.80;;;;;;4976479;28;20038;-76
2021/03/07 11:45:44;;;;;;;14.35;8.50;;;154.30;972.80;;;;;;4973993;28;20484;-76
2021/03/07 11:48:10;;;;;;;12.43;8.48;;;154.30;972.80;;;;;;4958421;28;20031;-75
2021/03/07 11:50:36;;;;;;;13.60;8.27;;;154.20;972.80;;;;;;4949443;28;20027;-76
2021/03/07 11:53:01;;;;;;;16.40;9.07;;;154.20;998.40;;;;;;4961374;28;20034;-73
2021/03/07 11:55:27;;;;;;;12.02;8.35;;;154.40;972.80;;;;;;4978433;28;20094;-77
2021/03/07 11:57:53;;;;;;;11.95;8.18;;;154.20;947.20;;;;;;4973762;28;20171;-77
2021/03/07 12:00:19;;;;;;;16.90;8.90;;;154.30;972.80;;;;;;4973194;28;20026;-78
2021/03/07 12:02:45;;;;;;;13.15;8.50;;;154.30;972.80;;;;;;4974606;28;20065;-73
2021/03/07 12:05:11;;;;;;;13.95;9.13;;;154.40;947.20;;;;;;4977248;28;20166;-75
2021/03/07 12:07:37;;;;;;;17.45;8.80;;;179.20;998.40;;;;;;4971910;28;20053;-81
2021/03/07 12:10:03;;;;;;;18.98;9.65;;;154.40;972.80;;;;;;4968604;28;20132;-75
2021/03/07 12:12:29;;;;;;;11.43;8.40;;;154.40;972.80;;;;;;4967717;28;20022;-66
2021/03/07 12:14:54;;;;;;;25.55;16.40;;;154.40;972.80;;;;;;4963741;28;20458;-69
2021/03/07 12:17:20;;;;;;;16.15;9.23;;;154.40;972.80;;;;;;4968651;28;20129;-80
2021/03/07 12:19:46;;;;;;;19.75;11.55;;;154.50;972.80;;;;;;4976099;28;20074;-73
2021/03/07 12:22:12;;;;;;;15.43;9.23;;;179.20;972.80;;;;;;4978756;28;20031;-78
2021/03/07 12:24:37;;;;;;;12.27;8.73;;;179.20;947.20;;;;;;4970723;28;20220;-78
2021/03/07 12:27:07;;;;;;;14.70;9.07;;;154.50;947.20;;;;;;4959538;28;20027;-76
2021/03/07 12:29:34;;;;;;;13.68;9.63;;;179.20;921.60;;;;;;4965534;28;20484;-78
2021/03/07 12:32:01;;;;;;;16.98;11.70;;;179.20;947.20;;;;;;4976329;28;20446;-78
2021/03/07 12:34:27;;;;;;;20.75;10.05;;;179.30;947.20;;;;;;4965367;28;20159;-79
2021/03/07 12:36:54;;;;;;;13.45;8.38;;;179.30;947.20;;;;;;4967198;28;20125;-75
2021/03/07 12:39:20;;;;;;;12.13;8.18;;;179.20;921.60;;;;;;4971405;28;20023;-76
2021/03/07 12:41:46;;;;;;;10.80;7.95;;;179.40;921.60;;;;;;4965235;28;20397;-70